Nearby METAR Reports

 

ENRY - Rygge (nor-Afb), Norway
Distance from station: 0 24km
Updated: 22/06/2024 05:50
Partly cloudy
Partly cloudy
 Wind from N
Wind: N 7 km/h
Temperature: 12°C
Dew Point: 10°C
Humidity: 88%
Barometer: 1009 hPa
Clouds: Partly cloudy
Visibility: 10 km
Cloud details: Few Clouds 2316 m
Partly cloudy 3018 m
2024/06/22 03:50 ENRY 220350Z AUTO 35004KT 9999 FEW076/// SCT099/// 12/10 Q1009
ENTO - Torp (civ/Nor-Af, Norway
Distance from station: W 29km
Updated: 22/06/2024 05:50
Light rain, Mostly cloudy
Light rain, Mostly cloudy
 Wind from N
Wind: N 13 km/h
Temperature: 12°C
Dew Point: 11°C
Humidity: 94%
Barometer: 1009 hPa
Summary: Light rain
Clouds: Mostly cloudy
Visibility: 10 km
Cloud details: Partly cloudy 61 m
Mostly cloudy 2987 m
2024/06/22 03:50 ENTO 220350Z 36007KT 9999 -RA SCT002 BKN098 12/11 Q1009
 
ENSN - Skien/Geiterygge, Norway
Distance from station: W 68km
Updated: 09/11/2015 09:50
NOT Current
Clear
Clear
 Wind from SSW
Wind: SSW 19 km/h, Gust: 41 km/h
Temperature: 7°C
Wind Chill: 4°C
Dew Point: 3°C
Humidity: 76%
Barometer: 1000 hPa
Summary: Clear
Visibility: greater than 10 km
2015/11/09 08:50 ENSN 090850Z 20010G22KT 150V240 CAVOK 07/03 Q1000